createdAt,value
2022-10-12T00:01:50.279Z,223.60
2022-10-12T00:04:17.426Z,208.30
2022-10-12T00:06:44.517Z,160.43
2022-10-12T00:09:11.652Z,147.50
2022-10-12T00:11:40.796Z,166.20
2022-10-12T00:14:07.936Z,174.07
2022-10-12T00:16:35.122Z,183.30
2022-10-12T00:19:02.416Z,209.70
2022-10-12T00:21:29.729Z,169.10
2022-10-12T00:23:57.688Z,152.37
2022-10-12T00:26:24.972Z,98.47
2022-10-12T00:28:56.573Z,129.40
2022-10-12T00:31:23.929Z,175.80
2022-10-12T00:33:51.036Z,137.00
2022-10-12T00:36:21.990Z,156.73
2022-10-12T00:38:49.373Z,125.00
2022-10-12T00:41:16.837Z,85.87
2022-10-12T00:43:44.205Z,102.73
2022-10-12T00:46:31.041Z,137.57
2022-10-12T00:48:59.259Z,89.47
2022-10-12T00:51:26.413Z,82.93
2022-10-12T00:53:55.148Z,92.77
2022-10-12T00:56:22.710Z,69.53
2022-10-12T00:58:49.879Z,77.20
2022-10-12T01:01:17.105Z,64.77
2022-10-12T01:03:44.256Z,62.47
2022-10-12T01:06:11.371Z,63.03
2022-10-12T01:08:38.490Z,67.10
2022-10-12T01:11:05.621Z,59.83
2022-10-12T01:13:32.745Z,55.07
2022-10-12T01:16:26.234Z,49.63
2022-10-12T01:18:59.515Z,56.93
2022-10-12T01:21:26.634Z,65.63
2022-10-12T01:23:59.775Z,63.03
2022-10-12T01:26:26.900Z,56.60
2022-10-12T01:29:00.028Z,59.73
2022-10-12T01:32:05.639Z,80.70
2022-10-12T01:34:45.693Z,55.13
2022-10-12T01:37:24.891Z,64.93
2022-10-12T01:39:56.040Z,79.90
2022-10-12T01:42:29.559Z,84.53
2022-10-12T01:45:03.748Z,78.97
2022-10-12T01:47:30.927Z,89.83
2022-10-12T01:49:58.038Z,74.37
2022-10-12T01:52:28.964Z,116.30
2022-10-12T01:54:59.181Z,85.03
2022-10-12T01:57:35.732Z,114.67
2022-10-12T02:00:09.296Z,82.57
2022-10-12T02:02:39.798Z,72.73
2022-10-12T02:05:25.720Z,59.67
2022-10-12T02:08:11.700Z,60.93
2022-10-12T02:10:39.911Z,110.83
2022-10-12T02:13:07.681Z,109.20
2022-10-12T02:15:34.778Z,119.90
2022-10-12T02:18:02.547Z,96.70
2022-10-12T02:20:29.774Z,112.10
2022-10-12T02:22:56.878Z,92.67
2022-10-12T02:25:24.418Z,105.97
2022-10-12T02:28:01.387Z,79.37
2022-10-12T02:30:28.543Z,84.87
2022-10-12T02:32:57.626Z,70.93
2022-10-12T02:35:26.507Z,90.07
2022-10-12T02:37:55.086Z,52.83
2022-10-12T02:40:23.194Z,82.43
2022-10-12T02:43:12.548Z,57.63
2022-10-12T02:45:40.251Z,63.03
2022-10-12T02:48:07.382Z,54.07
2022-10-12T02:50:34.485Z,72.87
2022-10-12T02:53:01.653Z,69.40
2022-10-12T02:55:30.266Z,75.13
2022-10-12T02:57:57.353Z,140.37
2022-10-12T03:00:24.457Z,99.57
2022-10-12T03:02:51.574Z,130.70
2022-10-12T03:05:18.663Z,191.90
2022-10-12T03:07:45.757Z,165.47
2022-10-12T03:10:12.917Z,149.43
2022-10-12T03:12:40.011Z,151.57
2022-10-12T03:15:07.314Z,97.33
2022-10-12T03:17:34.537Z,89.83
2022-10-12T03:20:01.688Z,118.93
2022-10-12T03:22:28.789Z,147.20
2022-10-12T03:24:56.908Z,121.07
2022-10-12T03:27:24.945Z,99.50
2022-10-12T03:29:52.056Z,90.73
2022-10-12T03:32:19.528Z,97.70
2022-10-12T03:34:46.636Z,114.60
2022-10-12T03:37:13.731Z,78.37
2022-10-12T03:39:40.861Z,76.60
2022-10-12T03:42:08.015Z,73.60
2022-10-12T03:44:35.179Z,107.60
2022-10-12T03:47:02.333Z,225.40
2022-10-12T03:49:29.445Z,182.67
2022-10-12T03:51:56.549Z,225.63
2022-10-12T03:54:23.707Z,170.07
2022-10-12T03:56:50.817Z,115.83
2022-10-12T03:59:17.906Z,107.40
2022-10-12T04:01:45.093Z,82.60
2022-10-12T04:04:12.335Z,84.93
2022-10-12T04:06:39.505Z,73.77
2022-10-12T04:09:06.731Z,93.13
2022-10-12T04:11:33.819Z,115.40
2022-10-12T04:14:00.958Z,89.67
2022-10-12T04:16:30.392Z,82.70
2022-10-12T04:18:58.339Z,100.47
2022-10-12T04:21:25.754Z,88.97
2022-10-12T04:23:52.930Z,74.70
2022-10-12T04:26:20.030Z,61.13
2022-10-12T04:28:47.211Z,73.00
2022-10-12T04:31:14.346Z,92.33
2022-10-12T04:33:41.452Z,118.00
2022-10-12T04:36:08.653Z,104.83
2022-10-12T04:38:35.885Z,95.73
2022-10-12T04:41:02.974Z,92.27
2022-10-12T04:43:30.117Z,96.73
2022-10-12T04:45:57.605Z,103.07
2022-10-12T04:48:24.798Z,83.63
2022-10-12T04:50:51.933Z,80.50
2022-10-12T04:53:19.208Z,77.70
2022-10-12T04:55:46.290Z,90.60
2022-10-12T04:58:13.715Z,145.93
2022-10-12T05:00:41.052Z,157.37
2022-10-12T05:03:08.166Z,143.93
2022-10-12T05:05:36.153Z,137.57
2022-10-12T05:08:03.762Z,123.33
2022-10-12T05:10:30.855Z,100.13
2022-10-12T05:12:58.029Z,104.13
2022-10-12T05:15:25.255Z,97.45
2022-10-12T05:17:52.422Z,112.73
2022-10-12T05:20:19.545Z,87.30
2022-10-12T05:22:46.663Z,81.67
2022-10-12T05:25:13.774Z,107.60
2022-10-12T05:27:41.146Z,112.03
2022-10-12T05:30:09.031Z,107.37
2022-10-12T05:32:36.313Z,76.77
2022-10-12T05:35:03.637Z,107.57
2022-10-12T05:37:30.756Z,76.67
2022-10-12T05:39:57.874Z,48.73
2022-10-12T05:42:24.967Z,80.30
2022-10-12T05:44:52.105Z,62.50
2022-10-12T05:47:19.211Z,49.80
2022-10-12T05:49:46.298Z,37.10
2022-10-12T05:52:13.456Z,36.07
2022-10-12T05:54:40.535Z,60.13
2022-10-12T05:57:07.644Z,105.33
2022-10-12T05:59:34.763Z,60.70
2022-10-12T06:02:01.903Z,47.03
2022-10-12T06:04:29.046Z,105.60
2022-10-12T06:06:56.177Z,110.53
2022-10-12T06:09:23.299Z,120.43
2022-10-12T06:11:50.598Z,110.17
2022-10-12T06:14:17.725Z,143.77
2022-10-12T06:16:44.825Z,143.43
2022-10-12T06:19:12.138Z,109.97
2022-10-12T06:21:39.324Z,133.67
2022-10-12T06:24:06.613Z,93.57
2022-10-12T06:26:33.737Z,142.17
2022-10-12T06:29:01.015Z,119.83
2022-10-12T06:31:28.881Z,69.73
2022-10-12T06:33:55.998Z,80.27
2022-10-12T06:36:23.912Z,94.50
2022-10-12T06:38:51.017Z,65.93
2022-10-12T06:41:18.153Z,67.63
2022-10-12T06:43:45.493Z,91.70
2022-10-12T06:46:12.588Z,101.83
2022-10-12T06:48:39.689Z,105.47
2022-10-12T06:51:06.880Z,101.80
2022-10-12T06:53:35.042Z,70.47
2022-10-12T06:56:11.566Z,74.53
2022-10-12T06:58:38.848Z,75.40
2022-10-12T07:01:06.410Z,53.50
2022-10-12T07:03:33.544Z,71.33
2022-10-12T07:06:07.689Z,69.80
2022-10-12T07:08:34.903Z,49.67
2022-10-12T07:11:02.726Z,42.93
2022-10-12T07:13:29.872Z,57.57
2022-10-12T07:15:57.027Z,39.87
2022-10-12T07:18:24.127Z,44.97
2022-10-12T07:20:51.399Z,35.87
2022-10-12T07:23:18.693Z,49.57
2022-10-12T07:25:49.966Z,40.33
2022-10-12T07:28:20.303Z,36.78
2022-10-12T07:30:47.631Z,34.70
2022-10-12T07:33:14.774Z,38.97
2022-10-12T07:36:03.270Z,43.78
2022-10-12T07:38:29.167Z,36.47
2022-10-12T07:40:58.938Z,36.67
2022-10-12T07:43:26.058Z,41.40
2022-10-12T07:45:53.170Z,41.05
2022-10-12T07:48:20.636Z,45.10
2022-10-12T07:50:47.750Z,39.45
2022-10-12T07:53:14.879Z,35.20
2022-10-12T07:55:42.026Z,30.05
2022-10-12T07:58:09.375Z,36.72
2022-10-12T08:00:36.508Z,40.35
2022-10-12T08:03:03.687Z,31.15
2022-10-12T08:05:30.821Z,24.73
2022-10-12T08:07:57.974Z,29.73
2022-10-12T08:10:25.163Z,27.45
2022-10-12T08:12:52.448Z,21.30
2022-10-12T08:15:19.647Z,22.85
2022-10-12T08:17:46.759Z,26.35
2022-10-12T08:20:13.881Z,26.63
2022-10-12T08:22:40.978Z,25.90
2022-10-12T08:25:08.324Z,24.00
2022-10-12T08:27:36.013Z,29.88
2022-10-12T08:30:03.269Z,26.92
2022-10-12T08:32:31.928Z,25.38
2022-10-12T08:34:59.038Z,26.15
2022-10-12T08:37:26.176Z,27.83
2022-10-12T08:39:53.391Z,25.60
2022-10-12T08:42:26.600Z,24.65
2022-10-12T08:44:53.777Z,30.58
2022-10-12T08:47:24.028Z,19.20
2022-10-12T08:49:51.311Z,17.13
2022-10-12T08:52:23.760Z,18.50
2022-10-12T08:54:50.909Z,14.23
2022-10-12T08:57:18.606Z,16.67
2022-10-12T08:59:46.117Z,17.90
2022-10-12T09:02:13.269Z,17.23
2022-10-12T09:04:58.107Z,12.88
2022-10-12T09:07:27.397Z,14.85
2022-10-12T09:10:00.729Z,12.23
2022-10-12T09:12:27.815Z,15.20
2022-10-12T09:14:57.258Z,14.13
2022-10-12T09:17:26.067Z,18.30
2022-10-12T09:20:00.335Z,11.30
2022-10-12T09:22:27.471Z,10.18
2022-10-12T09:24:54.593Z,13.32
2022-10-12T09:27:22.466Z,11.98
2022-10-12T09:29:50.754Z,13.65
2022-10-12T09:32:31.448Z,9.05
2022-10-12T09:34:58.917Z,10.15
2022-10-12T09:37:27.126Z,10.90
2022-10-12T09:39:54.232Z,12.90
2022-10-12T09:42:21.395Z,11.10
2022-10-12T09:44:53.275Z,7.82
2022-10-12T09:47:27.722Z,12.07
2022-10-12T09:49:58.831Z,7.90
2022-10-12T09:52:28.473Z,7.50
2022-10-12T09:54:57.393Z,9.80
2022-10-12T09:57:26.553Z,17.73
2022-10-12T09:59:53.722Z,10.32
2022-10-12T10:02:21.422Z,10.85
2022-10-12T10:04:48.934Z,8.32
2022-10-12T10:07:22.329Z,8.68
2022-10-12T10:09:50.114Z,11.35
2022-10-12T10:12:24.239Z,6.38
2022-10-12T10:14:51.823Z,8.57
2022-10-12T10:17:24.567Z,13.63
2022-10-12T10:19:51.916Z,8.95
2022-10-12T10:22:19.521Z,8.45
2022-10-12T10:25:13.003Z,9.90
2022-10-12T10:27:40.395Z,9.15
2022-10-12T10:30:31.808Z,9.15
2022-10-12T10:33:14.939Z,6.93
2022-10-12T10:35:52.792Z,6.82
2022-10-12T10:38:19.905Z,7.90
2022-10-12T10:40:50.960Z,8.45
2022-10-12T10:43:36.209Z,7.45
2022-10-12T10:46:03.474Z,6.57
2022-10-12T10:48:31.169Z,6.45
2022-10-12T10:51:02.049Z,9.43
2022-10-12T10:53:33.931Z,9.32
2022-10-12T10:56:06.287Z,7.85
2022-10-12T10:58:35.830Z,8.40
2022-10-12T11:01:05.007Z,8.15
2022-10-12T11:03:34.163Z,8.85
2022-10-12T11:06:07.522Z,9.20
2022-10-12T11:08:34.658Z,6.82
2022-10-12T11:11:07.449Z,8.40
2022-10-12T11:13:35.602Z,8.20
2022-10-12T11:16:09.272Z,5.63
2022-10-12T11:18:40.553Z,6.43
2022-10-12T11:21:37.377Z,6.57
2022-10-12T11:24:10.412Z,6.97
2022-10-12T11:27:01.107Z,6.20
2022-10-12T11:29:28.267Z,6.38
2022-10-12T11:32:05.289Z,9.45
2022-10-12T11:34:33.483Z,5.18
2022-10-12T11:37:18.852Z,7.82
2022-10-12T11:39:47.908Z,7.90
2022-10-12T11:42:22.488Z,8.35
2022-10-12T11:44:50.179Z,7.65
2022-10-12T11:47:36.962Z,8.00
2022-10-12T11:50:04.214Z,6.80
2022-10-12T11:52:49.519Z,10.32
2022-10-12T11:55:35.161Z,7.30
2022-10-12T11:58:09.051Z,10.98
2022-10-12T12:00:49.574Z,7.65
2022-10-12T12:03:21.589Z,6.75
2022-10-12T12:05:48.731Z,7.22
2022-10-12T12:08:45.021Z,5.90
2022-10-12T12:11:21.935Z,7.13
2022-10-12T12:13:49.058Z,9.60
2022-10-12T12:16:19.164Z,10.40
2022-10-12T12:19:04.792Z,6.55
2022-10-12T12:21:31.912Z,7.55
2022-10-12T12:23:59.018Z,6.03
2022-10-12T12:26:27.107Z,5.30
2022-10-12T12:29:10.591Z,7.45
2022-10-12T12:31:37.732Z,7.93
2022-10-12T12:34:08.318Z,5.97
2022-10-12T12:36:36.438Z,6.88
2022-10-12T12:39:04.024Z,8.00
2022-10-12T12:41:55.115Z,6.88
2022-10-12T12:44:43.484Z,6.57
2022-10-12T12:50:23.882Z,6.32
2022-10-12T12:52:51.038Z,8.00
2022-10-12T12:55:25.610Z,7.72
2022-10-12T12:57:58.725Z,8.50
2022-10-12T13:00:26.387Z,7.63
2022-10-12T13:02:53.663Z,7.50
2022-10-12T13:05:20.817Z,10.80
2022-10-12T13:08:04.054Z,10.13
2022-10-12T13:10:31.640Z,8.35
2022-10-12T13:13:04.629Z,8.32
2022-10-12T13:15:31.735Z,8.20
2022-10-12T13:18:45.228Z,5.32
2022-10-12T13:21:07.870Z,7.15
2022-10-12T13:23:34.996Z,9.48
2022-10-12T13:26:04.156Z,4.30
2022-10-12T13:28:32.337Z,5.90
2022-10-12T13:30:59.533Z,6.38
2022-10-12T13:33:31.348Z,8.82
2022-10-12T13:36:02.605Z,6.95
2022-10-12T13:38:30.106Z,7.05
2022-10-12T13:41:02.590Z,9.00
2022-10-12T13:43:33.158Z,8.82
2022-10-12T13:46:00.382Z,7.47
2022-10-12T13:48:53.833Z,7.55
2022-10-12T13:51:24.897Z,9.30
2022-10-12T13:53:52.079Z,7.07
2022-10-12T13:56:20.357Z,10.48
2022-10-12T13:58:47.508Z,11.20
2022-10-12T14:01:14.751Z,8.02
2022-10-12T14:03:42.680Z,10.73
2022-10-12T14:06:24.658Z,10.90
2022-10-12T14:08:51.755Z,11.63
2022-10-12T14:11:18.874Z,7.88
2022-10-12T14:13:46.807Z,8.85
2022-10-12T14:16:13.929Z,6.50
2022-10-12T14:18:41.826Z,12.90
2022-10-12T14:21:15.176Z,12.50
2022-10-12T14:23:45.986Z,10.50
2022-10-12T14:26:31.566Z,8.55
2022-10-12T14:28:58.797Z,7.82
2022-10-12T14:31:44.683Z,6.25
2022-10-12T14:34:30.587Z,6.90
2022-10-12T14:37:01.587Z,7.00
2022-10-12T14:39:28.720Z,11.02
2022-10-12T14:42:02.839Z,10.10
2022-10-12T14:44:30.222Z,8.82
2022-10-12T14:47:06.113Z,9.75
2022-10-12T14:49:35.599Z,9.43
2022-10-12T14:52:02.722Z,10.90
2022-10-12T14:54:29.846Z,9.32
2022-10-12T14:56:57.370Z,9.90
2022-10-12T14:59:24.465Z,8.63
2022-10-12T15:01:51.814Z,7.68
2022-10-12T15:04:18.934Z,37.72
2022-10-12T15:06:50.739Z,49.70
2022-10-12T15:09:18.278Z,22.80
2022-10-12T15:11:45.405Z,12.30
2022-10-12T15:14:12.596Z,12.63
2022-10-12T15:16:39.837Z,16.05
2022-10-12T15:19:06.944Z,11.50
2022-10-12T15:21:34.043Z,12.55
2022-10-12T15:24:01.162Z,10.55
2022-10-12T15:26:28.276Z,9.65
2022-10-12T15:28:55.481Z,12.32
2022-10-12T15:31:22.703Z,10.75
2022-10-12T15:33:49.815Z,11.40
2022-10-12T15:36:16.898Z,10.65
2022-10-12T15:38:44.085Z,11.88
2022-10-12T15:41:15.379Z,10.77
2022-10-12T15:43:42.458Z,13.65
2022-10-12T15:46:12.444Z,11.35
2022-10-12T15:48:40.324Z,13.70
2022-10-12T15:51:08.291Z,14.40
2022-10-12T15:53:35.437Z,14.48
2022-10-12T15:56:02.527Z,23.10
2022-10-12T15:58:29.638Z,17.33
2022-10-12T16:00:56.997Z,34.13
2022-10-12T16:03:26.406Z,67.05
2022-10-12T16:05:53.809Z,110.72
2022-10-12T16:08:20.931Z,118.25
2022-10-12T16:10:48.369Z,135.73
2022-10-12T16:13:15.565Z,154.18
2022-10-12T16:15:42.772Z,102.97
2022-10-12T16:18:10.096Z,96.80
2022-10-12T16:20:37.574Z,71.55
2022-10-12T16:23:05.611Z,70.97
2022-10-12T16:25:32.750Z,73.15
2022-10-12T16:27:59.877Z,73.70
2022-10-12T16:30:27.058Z,65.07
2022-10-12T16:32:54.178Z,54.50
2022-10-12T16:35:21.390Z,34.65
2022-10-12T16:37:48.558Z,45.90
2022-10-12T16:40:15.966Z,41.50
2022-10-12T16:42:43.317Z,51.45
2022-10-12T16:45:10.807Z,48.38
2022-10-12T16:47:42.611Z,56.13
2022-10-12T16:50:10.278Z,54.15
2022-10-12T16:52:37.417Z,55.13
2022-10-12T16:55:04.668Z,50.92
2022-10-12T16:57:31.778Z,859.47
2022-10-12T16:59:58.947Z,105.18
2022-10-12T17:02:27.417Z,64.80
2022-10-12T17:04:54.666Z,61.67
2022-10-12T17:07:21.807Z,62.35
2022-10-12T17:09:49.078Z,80.53
2022-10-12T17:12:19.323Z,96.28
2022-10-12T17:14:46.519Z,122.25
2022-10-12T17:17:13.618Z,118.22
2022-10-12T17:19:41.213Z,101.43
2022-10-12T17:22:09.184Z,102.82
2022-10-12T17:24:37.173Z,85.70
2022-10-12T17:27:04.749Z,77.15
2022-10-12T17:29:32.227Z,92.93
2022-10-12T17:31:59.529Z,89.80
2022-10-12T17:34:27.616Z,101.45
2022-10-12T17:36:55.124Z,110.97
2022-10-12T17:39:22.314Z,103.60
2022-10-12T17:41:49.478Z,89.03
2022-10-12T17:44:16.580Z,86.18
2022-10-12T17:46:43.836Z,85.70
2022-10-12T17:49:14.321Z,88.88
2022-10-12T17:51:41.720Z,93.60
2022-10-12T17:54:09.440Z,84.22
2022-10-12T17:56:36.635Z,84.70
2022-10-12T17:59:03.889Z,74.70
2022-10-12T18:01:31.194Z,82.40
2022-10-12T18:04:04.571Z,81.22
2022-10-12T18:06:32.087Z,83.13
2022-10-12T18:08:59.411Z,68.05
2022-10-12T18:11:26.658Z,70.47
2022-10-12T18:13:54.945Z,63.05
2022-10-12T18:16:25.826Z,77.75
2022-10-12T18:18:54.635Z,66.30
2022-10-12T18:21:23.485Z,70.20
2022-10-12T18:23:50.616Z,78.28
2022-10-12T18:26:22.068Z,78.50
2022-10-12T18:28:52.273Z,75.78
2022-10-12T18:31:19.966Z,69.00
2022-10-12T18:33:47.278Z,66.03
2022-10-12T18:36:14.459Z,68.32
2022-10-12T18:38:41.616Z,74.45
2022-10-12T18:41:09.870Z,70.53
2022-10-12T18:43:37.067Z,109.25
2022-10-12T18:46:07.810Z,81.00
2022-10-12T18:48:34.978Z,91.78
2022-10-12T18:51:08.817Z,82.95
2022-10-12T18:53:36.014Z,70.97
2022-10-12T18:56:04.008Z,88.60
2022-10-12T18:58:31.312Z,71.22
2022-10-12T19:00:58.590Z,74.47
2022-10-12T19:03:25.852Z,76.50
2022-10-12T19:05:53.030Z,78.35
2022-10-12T19:08:20.179Z,86.93
2022-10-12T19:10:47.289Z,84.03
2022-10-12T19:13:14.419Z,93.60
2022-10-12T19:15:41.578Z,94.03
2022-10-12T19:18:08.702Z,80.38
2022-10-12T19:20:36.839Z,79.28
2022-10-12T19:23:03.966Z,76.43
2022-10-12T19:25:31.100Z,70.03
2022-10-12T19:27:58.221Z,78.57
2022-10-12T19:30:25.370Z,74.18
2022-10-12T19:32:52.515Z,96.73
2022-10-12T19:35:20.443Z,107.10
2022-10-12T19:37:47.594Z,107.00
2022-10-12T19:40:14.751Z,114.57
2022-10-12T19:42:41.867Z,108.03
2022-10-12T19:45:09.171Z,106.72
2022-10-12T19:47:36.282Z,107.57
2022-10-12T19:50:03.404Z,93.87
2022-10-12T19:52:30.616Z,89.38
2022-10-12T19:54:57.771Z,85.87
2022-10-12T19:57:25.141Z,91.10
2022-10-12T19:59:52.292Z,100.37
2022-10-12T20:02:19.813Z,96.00
2022-10-12T20:04:47.202Z,87.68
2022-10-12T20:07:14.336Z,93.10
2022-10-12T20:09:41.422Z,92.45
2022-10-12T20:12:08.546Z,87.30
2022-10-12T20:14:35.662Z,80.73
2022-10-12T20:17:02.757Z,86.03
2022-10-12T20:19:29.858Z,84.97
2022-10-12T20:21:57.022Z,86.37
2022-10-12T20:24:24.146Z,87.20
2022-10-12T20:26:51.235Z,85.90
2022-10-12T20:29:18.391Z,85.17
2022-10-12T20:31:45.561Z,97.80
2022-10-12T20:34:12.734Z,85.45
2022-10-12T20:36:39.900Z,89.97
2022-10-12T20:39:07.002Z,90.30
2022-10-12T20:41:34.335Z,128.63
2022-10-12T20:44:01.751Z,113.20
2022-10-12T20:46:29.255Z,123.70
2022-10-12T20:48:58.622Z,136.97
2022-10-12T20:51:30.473Z,140.50
2022-10-12T20:54:00.348Z,154.40
2022-10-12T20:56:30.868Z,229.30
2022-10-12T20:58:58.057Z,218.37
2022-10-12T21:01:26.082Z,209.17
2022-10-12T21:03:55.959Z,191.53
2022-10-12T21:06:24.063Z,147.30
2022-10-12T21:08:51.755Z,82.33
2022-10-12T21:11:20.208Z,73.90
2022-10-12T21:13:47.363Z,89.60
2022-10-12T21:16:14.599Z,82.13
2022-10-12T21:18:41.812Z,81.30
2022-10-12T21:21:12.931Z,75.50
2022-10-12T21:23:43.140Z,74.80
2022-10-12T21:26:19.601Z,113.97
2022-10-12T21:28:46.838Z,84.30
2022-10-12T21:31:14.167Z,74.80
2022-10-12T21:33:41.314Z,109.83
2022-10-12T21:36:21.507Z,116.77
2022-10-12T21:38:48.705Z,118.13
2022-10-12T21:41:16.180Z,109.00
2022-10-12T21:43:43.740Z,130.87
2022-10-12T21:46:11.981Z,114.33
2022-10-12T21:48:39.226Z,139.37
2022-10-12T21:51:06.622Z,150.60
2022-10-12T21:53:35.582Z,114.90
2022-10-12T21:56:09.042Z,140.23
2022-10-12T21:58:36.173Z,124.00
2022-10-12T22:01:16.211Z,123.13
2022-10-12T22:03:43.456Z,131.30
2022-10-12T22:06:17.505Z,120.97
2022-10-12T22:08:44.668Z,118.23
2022-10-12T22:11:12.243Z,98.37
2022-10-12T22:13:39.407Z,102.20
2022-10-12T22:16:10.139Z,96.07
2022-10-12T22:18:37.342Z,100.07
2022-10-12T22:21:05.424Z,93.77
2022-10-12T22:23:32.589Z,92.57
2022-10-12T22:26:00.890Z,93.13
2022-10-12T22:28:28.084Z,87.23
2022-10-12T22:30:55.234Z,95.03
2022-10-12T22:33:22.539Z,91.27
2022-10-12T22:35:59.297Z,90.87
2022-10-12T22:38:26.444Z,87.80
2022-10-12T22:40:57.138Z,84.47
2022-10-12T22:43:24.435Z,78.20
2022-10-12T22:45:51.541Z,82.10
2022-10-12T22:48:18.716Z,77.57
2022-10-12T22:50:45.935Z,80.23
2022-10-12T22:53:13.199Z,80.50
2022-10-12T22:55:40.347Z,80.20
2022-10-12T22:58:07.492Z,85.10
2022-10-12T23:00:34.669Z,79.07
2022-10-12T23:03:01.790Z,70.07
2022-10-12T23:05:28.941Z,67.60
2022-10-12T23:07:56.087Z,52.40
2022-10-12T23:10:23.251Z,40.70
2022-10-12T23:12:50.694Z,50.57
2022-10-12T23:15:17.970Z,50.20
2022-10-12T23:17:45.123Z,41.73
2022-10-12T23:20:12.415Z,39.37
2022-10-12T23:22:39.528Z,31.20
2022-10-12T23:25:06.881Z,36.73
2022-10-12T23:27:34.038Z,34.20
2022-10-12T23:30:01.151Z,39.23
2022-10-12T23:32:30.398Z,42.33
2022-10-12T23:34:57.678Z,46.57
2022-10-12T23:37:24.861Z,44.37
2022-10-12T23:39:51.968Z,45.27
2022-10-12T23:42:19.417Z,52.40
2022-10-12T23:44:46.791Z,47.67
2022-10-12T23:47:13.925Z,51.03
2022-10-12T23:49:41.095Z,43.83
2022-10-12T23:52:08.202Z,47.30
2022-10-12T23:54:35.358Z,45.00
2022-10-12T23:57:02.465Z,51.67
2022-10-12T23:59:29.559Z,47.90
